createdAt,value
2024-01-19T00:00:27.375Z,9.32
2024-01-19T00:01:29.219Z,5.13
2024-01-19T00:02:32.106Z,5.55
2024-01-19T00:03:34.004Z,6.03
2024-01-19T00:04:36.924Z,4.63
2024-01-19T00:05:38.900Z,5.60
2024-01-19T00:06:41.841Z,6.00
2024-01-19T00:07:43.749Z,5.10
2024-01-19T00:08:45.690Z,4.72
2024-01-19T00:09:48.501Z,7.00
2024-01-19T00:10:53.186Z,5.72
2024-01-19T00:11:56.161Z,5.03
2024-01-19T00:12:58.220Z,5.10
2024-01-19T00:14:00.222Z,5.68
2024-01-19T00:15:03.355Z,6.28
2024-01-19T00:16:05.288Z,6.10
2024-01-19T00:17:08.155Z,4.82
2024-01-19T00:18:10.887Z,5.40
2024-01-19T00:19:13.977Z,6.30
2024-01-19T00:20:16.163Z,6.35
2024-01-19T00:21:19.180Z,4.32
2024-01-19T00:22:21.015Z,4.55
2024-01-19T00:23:23.911Z,5.72
2024-01-19T00:24:25.860Z,5.82
2024-01-19T00:25:28.983Z,4.90
2024-01-19T00:26:32.461Z,4.35
2024-01-19T00:27:35.422Z,5.32
2024-01-19T00:28:37.333Z,6.20
2024-01-19T00:29:40.821Z,6.50
2024-01-19T00:30:42.705Z,5.35
2024-01-19T00:31:47.614Z,5.22
2024-01-19T00:32:49.578Z,6.50
2024-01-19T00:33:52.481Z,5.05
2024-01-19T00:34:54.405Z,5.38
2024-01-19T00:35:57.322Z,6.43
2024-01-19T00:36:59.239Z,5.85
2024-01-19T00:38:02.111Z,5.50
2024-01-19T00:39:05.181Z,4.40
2024-01-19T00:40:13.051Z,8.85
2024-01-19T00:41:16.123Z,7.18
2024-01-19T00:42:20.506Z,4.35
2024-01-19T00:43:22.313Z,5.38
2024-01-19T00:44:25.181Z,4.75
2024-01-19T00:45:27.203Z,4.78
2024-01-19T00:46:30.755Z,6.20
2024-01-19T00:47:34.201Z,4.85
2024-01-19T00:48:37.179Z,5.68
2024-01-19T00:49:39.182Z,5.22
2024-01-19T00:50:42.201Z,4.85
2024-01-19T00:51:45.757Z,5.57
2024-01-19T00:52:48.675Z,4.20
2024-01-19T00:53:50.801Z,4.28
2024-01-19T00:54:54.968Z,4.65
2024-01-19T00:55:56.885Z,3.70
2024-01-19T00:56:59.878Z,6.88
2024-01-19T00:58:03.210Z,4.60
2024-01-19T00:59:06.126Z,4.97
2024-01-19T01:00:10.074Z,3.67
2024-01-19T01:01:13.800Z,4.68
2024-01-19T01:02:15.826Z,3.83
2024-01-19T01:03:24.433Z,4.65
2024-01-19T01:04:26.430Z,4.70
2024-01-19T01:05:29.727Z,4.00
2024-01-19T01:06:33.372Z,3.47
2024-01-19T01:07:36.808Z,3.90
2024-01-19T01:08:38.828Z,3.35
2024-01-19T01:09:41.805Z,3.25
2024-01-19T01:10:44.621Z,5.57
2024-01-19T01:11:47.596Z,3.80
2024-01-19T01:12:49.648Z,3.78
2024-01-19T01:13:53.853Z,4.00
2024-01-19T01:14:55.842Z,4.35
2024-01-19T01:15:58.722Z,3.65
2024-01-19T01:17:01.155Z,3.88
2024-01-19T01:18:06.290Z,3.92
2024-01-19T01:19:08.660Z,2.90
2024-01-19T01:20:13.361Z,3.95
2024-01-19T01:21:15.307Z,4.03
2024-01-19T01:22:51.542Z,5.13
2024-01-19T01:23:53.751Z,4.30
2024-01-19T01:24:56.641Z,4.25
2024-01-19T01:25:58.567Z,3.92
2024-01-19T01:27:00.479Z,3.45
2024-01-19T01:28:03.527Z,3.47
2024-01-19T01:29:06.826Z,4.20
2024-01-19T01:30:11.051Z,3.38
2024-01-19T01:31:12.948Z,3.55
2024-01-19T01:32:15.830Z,4.38
2024-01-19T01:33:17.784Z,4.40
2024-01-19T01:34:20.713Z,7.32
2024-01-19T01:35:22.585Z,4.10
2024-01-19T01:36:25.457Z,6.00
2024-01-19T01:37:27.266Z,4.10
2024-01-19T01:38:29.181Z,7.43
2024-01-19T01:39:31.992Z,4.07
2024-01-19T01:40:34.050Z,4.78
2024-01-19T01:41:37.494Z,3.28
2024-01-19T01:42:39.426Z,5.43
2024-01-19T01:43:42.273Z,7.43
2024-01-19T01:44:45.533Z,4.03
2024-01-19T01:45:48.430Z,2.97
2024-01-19T01:46:50.358Z,3.45
2024-01-19T01:47:52.314Z,4.80
2024-01-19T01:48:55.856Z,5.40
2024-01-19T01:49:57.978Z,3.70
2024-01-19T01:51:01.375Z,4.63
2024-01-19T01:52:03.742Z,4.95
2024-01-19T01:53:25.522Z,3.83
2024-01-19T01:54:27.628Z,3.40
2024-01-19T01:55:30.699Z,3.75
2024-01-19T01:56:34.249Z,3.97
2024-01-19T01:57:37.323Z,3.45
2024-01-19T01:58:39.250Z,4.50
2024-01-19T01:59:42.791Z,4.38
2024-01-19T02:00:46.854Z,5.22
2024-01-19T02:01:50.599Z,4.28
2024-01-19T02:02:53.702Z,4.13
2024-01-19T02:03:58.433Z,3.80
2024-01-19T02:05:00.793Z,3.17
2024-01-19T02:06:03.913Z,3.50
2024-01-19T02:07:06.252Z,4.60
2024-01-19T02:08:09.660Z,3.75
2024-01-19T02:09:11.802Z,3.13
2024-01-19T02:10:14.803Z,3.88
2024-01-19T02:11:16.801Z,3.22
2024-01-19T02:12:20.074Z,3.35
2024-01-19T02:13:22.019Z,3.85
2024-01-19T02:14:23.907Z,3.35
2024-01-19T02:15:27.630Z,3.13
2024-01-19T02:16:31.041Z,5.75
2024-01-19T02:17:34.061Z,3.15
2024-01-19T02:18:36.021Z,4.22
2024-01-19T02:19:38.230Z,3.83
2024-01-19T02:20:41.242Z,3.83
2024-01-19T02:21:43.233Z,3.42
2024-01-19T02:22:47.561Z,3.97
2024-01-19T02:23:55.542Z,4.00
2024-01-19T02:24:59.820Z,4.25
2024-01-19T02:27:36.752Z,3.13
2024-01-19T02:28:38.682Z,3.30
2024-01-19T02:29:41.546Z,3.47
2024-01-19T02:30:45.924Z,3.92
2024-01-19T02:31:48.786Z,3.17
2024-01-19T02:32:50.735Z,3.90
2024-01-19T02:33:53.752Z,3.10
2024-01-19T02:34:55.706Z,4.70
2024-01-19T02:35:58.620Z,4.60
2024-01-19T02:37:00.617Z,4.45
2024-01-19T02:38:03.558Z,6.43
2024-01-19T02:39:06.367Z,2.92
2024-01-19T02:40:11.665Z,3.28
2024-01-19T02:41:13.551Z,3.08
2024-01-19T02:42:16.587Z,3.60
2024-01-19T02:43:18.504Z,4.10
2024-01-19T02:44:21.336Z,4.90
2024-01-19T02:45:23.209Z,3.42
2024-01-19T02:46:26.151Z,4.40
2024-01-19T02:47:28.284Z,3.35
2024-01-19T02:48:30.445Z,3.08
2024-01-19T02:49:33.599Z,3.53
2024-01-19T02:50:35.552Z,3.50
2024-01-19T02:51:38.442Z,5.85
2024-01-19T02:52:40.288Z,3.15
2024-01-19T02:53:43.219Z,3.88
2024-01-19T02:54:45.060Z,3.15
2024-01-19T02:55:49.320Z,3.40
2024-01-19T02:56:51.298Z,3.42
2024-01-19T02:57:53.197Z,7.75
2024-01-19T02:58:56.003Z,4.85
2024-01-19T02:59:58.174Z,5.03
2024-01-19T03:01:01.781Z,3.17
2024-01-19T03:02:04.088Z,4.47
2024-01-19T03:03:07.414Z,4.45
2024-01-19T03:04:09.343Z,3.83
2024-01-19T03:05:12.251Z,6.15
2024-01-19T03:06:14.340Z,4.60
2024-01-19T03:07:17.656Z,4.85
2024-01-19T03:08:21.007Z,3.75
2024-01-19T03:09:23.841Z,4.22
2024-01-19T03:10:25.735Z,4.03
2024-01-19T03:11:29.023Z,4.80
2024-01-19T03:12:31.947Z,3.80
2024-01-19T03:13:33.815Z,5.50
2024-01-19T03:14:36.762Z,4.03
2024-01-19T03:15:38.584Z,3.58
2024-01-19T03:16:43.127Z,4.47
2024-01-19T03:17:45.066Z,4.45
2024-01-19T03:18:48.303Z,3.53
2024-01-19T03:19:50.173Z,5.60
2024-01-19T03:20:53.120Z,4.40
2024-01-19T03:21:55.164Z,3.67
2024-01-19T03:22:58.031Z,3.92
2024-01-19T03:23:59.954Z,5.30
2024-01-19T03:25:03.721Z,5.05
2024-01-19T03:26:06.016Z,3.28
2024-01-19T03:27:10.180Z,3.78
2024-01-19T03:28:12.960Z,4.00
2024-01-19T03:29:17.094Z,3.53
2024-01-19T03:30:19.489Z,9.57
2024-01-19T03:31:22.294Z,3.47
2024-01-19T03:32:24.156Z,5.00
2024-01-19T03:33:27.487Z,3.65
2024-01-19T03:34:29.620Z,3.83
2024-01-19T03:35:32.571Z,3.42
2024-01-19T03:36:34.595Z,4.80
2024-01-19T03:37:37.465Z,4.90
2024-01-19T03:38:39.334Z,5.80
2024-01-19T03:39:41.238Z,3.50
2024-01-19T03:40:44.280Z,5.75
2024-01-19T03:41:46.154Z,4.30
2024-01-19T03:42:50.389Z,4.03
2024-01-19T03:43:52.270Z,4.53
2024-01-19T03:44:55.359Z,5.13
2024-01-19T03:45:57.454Z,8.07
2024-01-19T03:47:01.270Z,4.30
2024-01-19T03:48:04.658Z,8.05
2024-01-19T03:49:07.921Z,5.63
2024-01-19T03:50:10.620Z,6.13
2024-01-19T03:51:13.639Z,4.05
2024-01-19T03:52:17.345Z,5.75
2024-01-19T03:53:20.228Z,4.35
2024-01-19T03:54:22.163Z,5.25
2024-01-19T03:55:25.169Z,5.30
2024-01-19T03:56:27.438Z,4.22
2024-01-19T03:57:29.303Z,4.20
2024-01-19T03:58:33.536Z,3.63
2024-01-19T03:59:35.704Z,3.58
2024-01-19T04:00:38.596Z,4.45
2024-01-19T04:01:40.411Z,4.22
2024-01-19T04:02:43.381Z,4.22
2024-01-19T04:03:46.001Z,3.53
2024-01-19T04:04:49.478Z,4.55
2024-01-19T04:05:51.468Z,4.70
2024-01-19T04:06:54.718Z,4.07
2024-01-19T04:07:56.694Z,4.00
2024-01-19T04:08:59.633Z,5.65
2024-01-19T04:10:01.657Z,6.65
2024-01-19T04:11:04.607Z,4.25
2024-01-19T04:12:12.102Z,4.63
2024-01-19T04:13:15.341Z,6.35
2024-01-19T04:14:18.840Z,6.00
2024-01-19T04:15:24.327Z,6.15
2024-01-19T04:16:26.228Z,3.83
2024-01-19T04:17:29.208Z,6.88
2024-01-19T04:18:31.407Z,4.03
2024-01-19T04:19:34.383Z,6.07
2024-01-19T04:20:36.849Z,5.82
2024-01-19T04:21:39.790Z,5.13
2024-01-19T04:22:42.119Z,5.18
2024-01-19T04:23:45.923Z,8.25
2024-01-19T04:24:47.866Z,7.10
2024-01-19T04:25:50.653Z,6.07
2024-01-19T04:26:52.755Z,4.75
2024-01-19T04:27:55.619Z,5.57
2024-01-19T04:28:57.496Z,4.20
2024-01-19T04:30:01.889Z,8.38
2024-01-19T04:31:03.974Z,6.05
2024-01-19T04:32:07.280Z,3.65
2024-01-19T04:33:09.249Z,4.40
2024-01-19T04:34:12.438Z,4.60
2024-01-19T04:35:14.481Z,6.15
2024-01-19T04:36:18.923Z,4.13
2024-01-19T04:37:21.831Z,6.93
2024-01-19T04:38:25.026Z,5.30
2024-01-19T04:39:26.956Z,4.57
2024-01-19T04:40:29.824Z,5.70
2024-01-19T04:41:34.005Z,7.70
2024-01-19T04:42:36.949Z,6.95
2024-01-19T04:43:38.899Z,5.18
2024-01-19T04:44:41.837Z,4.35
2024-01-19T04:45:45.467Z,6.97
2024-01-19T04:46:48.451Z,6.82
2024-01-19T04:47:50.406Z,8.40
2024-01-19T04:48:52.480Z,6.53
2024-01-19T04:49:55.493Z,4.95
2024-01-19T04:50:57.438Z,4.50
2024-01-19T04:52:00.381Z,4.20
2024-01-19T04:53:02.414Z,5.00
2024-01-19T04:54:05.566Z,6.70
2024-01-19T04:55:08.257Z,4.07
2024-01-19T04:56:10.312Z,6.63
2024-01-19T04:57:13.185Z,7.38
2024-01-19T04:58:15.065Z,5.97
2024-01-19T04:59:17.898Z,7.03
2024-01-19T05:00:23.051Z,6.63
2024-01-19T05:01:27.322Z,3.85
2024-01-19T05:02:30.952Z,4.30
2024-01-19T05:03:33.938Z,6.95
2024-01-19T05:04:35.934Z,9.32
2024-01-19T05:05:39.465Z,8.43
2024-01-19T05:06:43.226Z,6.70
2024-01-19T05:07:46.235Z,8.95
2024-01-19T05:08:48.228Z,3.58
2024-01-19T05:09:50.142Z,3.83
2024-01-19T05:10:53.041Z,6.30
2024-01-19T05:11:55.054Z,5.55
2024-01-19T05:12:57.923Z,8.45
2024-01-19T05:13:59.816Z,7.20
2024-01-19T05:15:03.251Z,4.70
2024-01-19T05:16:06.114Z,5.10
2024-01-19T05:17:10.244Z,5.95
2024-01-19T05:18:12.805Z,5.72
2024-01-19T05:19:15.817Z,6.00
2024-01-19T05:20:19.604Z,4.60
2024-01-19T05:21:22.607Z,5.75
2024-01-19T05:22:24.513Z,7.68
2024-01-19T05:23:27.410Z,5.38
2024-01-19T05:24:29.365Z,6.40
2024-01-19T05:25:32.234Z,5.25
2024-01-19T05:26:34.487Z,4.20
2024-01-19T05:27:40.355Z,4.47
2024-01-19T05:28:42.689Z,6.18
2024-01-19T05:29:45.799Z,4.75
2024-01-19T05:30:49.660Z,5.25
2024-01-19T05:31:52.642Z,5.10
2024-01-19T05:32:56.330Z,6.80
2024-01-19T05:33:59.714Z,8.88
2024-01-19T05:35:01.781Z,5.32
2024-01-19T05:36:05.175Z,4.43
2024-01-19T05:37:07.347Z,4.35
2024-01-19T05:38:12.684Z,6.63
2024-01-19T05:39:14.587Z,6.47
2024-01-19T05:40:19.525Z,3.97
2024-01-19T05:41:22.621Z,6.10
2024-01-19T05:42:25.663Z,5.05
2024-01-19T05:43:27.474Z,5.53
2024-01-19T05:44:30.505Z,5.55
2024-01-19T05:45:32.357Z,5.03
2024-01-19T05:46:35.220Z,5.45
2024-01-19T05:47:37.072Z,6.65
2024-01-19T05:48:40.654Z,5.03
2024-01-19T05:49:43.707Z,5.95
2024-01-19T05:50:45.608Z,5.65
2024-01-19T05:51:48.571Z,4.22
2024-01-19T05:52:50.556Z,5.13
2024-01-19T05:53:52.550Z,6.28
2024-01-19T05:54:55.499Z,6.82
2024-01-19T05:55:57.326Z,5.43
2024-01-19T05:57:00.211Z,5.95
2024-01-19T05:58:04.527Z,6.07
2024-01-19T05:59:07.515Z,7.88
2024-01-19T06:00:10.843Z,7.00
2024-01-19T06:01:16.644Z,4.13
2024-01-19T06:02:18.783Z,6.25
2024-01-19T06:03:21.395Z,7.85
2024-01-19T06:04:25.790Z,7.00
2024-01-19T06:05:27.694Z,6.00
2024-01-19T06:06:30.654Z,6.68
2024-01-19T06:07:33.528Z,4.93
2024-01-19T06:08:36.503Z,5.97
2024-01-19T06:09:38.470Z,5.70
2024-01-19T06:10:41.426Z,4.30
2024-01-19T06:11:43.455Z,6.78
2024-01-19T06:12:46.462Z,4.30
2024-01-19T06:13:48.967Z,6.22
2024-01-19T06:14:52.084Z,6.57
2024-01-19T06:15:54.068Z,5.20
2024-01-19T06:16:56.953Z,5.00
2024-01-19T06:17:58.902Z,5.65
2024-01-19T06:19:01.965Z,7.90
2024-01-19T06:20:06.413Z,6.00
2024-01-19T06:21:11.748Z,6.60
2024-01-19T06:22:13.644Z,4.97
2024-01-19T06:23:16.536Z,4.97
2024-01-19T06:24:18.795Z,6.05
2024-01-19T06:25:21.694Z,4.88
2024-01-19T06:26:24.492Z,4.88
2024-01-19T06:27:27.631Z,5.90
2024-01-19T06:28:29.518Z,3.90
2024-01-19T06:29:32.445Z,4.32
2024-01-19T06:30:34.422Z,4.72
2024-01-19T06:31:44.884Z,5.70
2024-01-19T06:32:46.856Z,4.65
2024-01-19T06:33:49.762Z,5.35
2024-01-19T06:34:51.876Z,6.10
2024-01-19T06:35:56.268Z,5.20
2024-01-19T06:36:58.215Z,6.50
2024-01-19T06:38:00.082Z,5.22
2024-01-19T06:39:03.466Z,5.30
2024-01-19T06:40:07.134Z,4.75
2024-01-19T06:41:10.145Z,5.65
2024-01-19T06:42:12.002Z,5.38
2024-01-19T06:43:14.957Z,5.30
2024-01-19T06:44:16.908Z,4.80
2024-01-19T06:45:19.969Z,6.70
2024-01-19T06:46:22.726Z,10.05
2024-01-19T06:47:26.111Z,4.57
2024-01-19T06:48:28.085Z,4.95
2024-01-19T06:49:31.338Z,5.40
2024-01-19T06:50:33.749Z,7.60
2024-01-19T06:51:38.020Z,6.38
2024-01-19T06:52:40.334Z,3.90
2024-01-19T06:53:43.320Z,5.30
2024-01-19T06:54:45.217Z,4.75
2024-01-19T06:55:48.057Z,5.68
2024-01-19T06:56:49.996Z,4.70
2024-01-19T06:57:51.918Z,4.30
2024-01-19T06:58:55.322Z,4.25
2024-01-19T06:59:57.266Z,5.65
2024-01-19T07:01:00.386Z,4.35
2024-01-19T07:02:02.290Z,6.75
2024-01-19T07:03:05.882Z,4.32
2024-01-19T07:04:07.943Z,4.53
2024-01-19T07:05:10.907Z,4.13
2024-01-19T07:06:12.973Z,4.28
2024-01-19T07:07:17.226Z,4.50
2024-01-19T07:08:19.144Z,4.97
2024-01-19T07:09:22.024Z,4.30
2024-01-19T07:10:24.346Z,4.53
2024-01-19T07:11:27.274Z,5.40
2024-01-19T07:12:29.263Z,6.60
2024-01-19T07:13:32.181Z,6.95
2024-01-19T07:14:34.439Z,4.53
2024-01-19T07:15:37.377Z,5.32
2024-01-19T07:16:40.198Z,6.85
2024-01-19T07:17:42.143Z,6.93
2024-01-19T07:18:45.339Z,5.57
2024-01-19T07:19:47.387Z,5.78
2024-01-19T07:20:50.399Z,6.90
2024-01-19T07:21:52.387Z,5.32
2024-01-19T07:22:56.833Z,7.28
2024-01-19T07:23:59.521Z,4.38
2024-01-19T07:25:02.494Z,4.25
2024-01-19T07:26:05.061Z,5.72
2024-01-19T07:27:08.070Z,6.75
2024-01-19T07:28:10.020Z,7.78
2024-01-19T07:29:13.035Z,7.30
2024-01-19T07:30:15.098Z,5.43
2024-01-19T07:31:18.091Z,4.63
2024-01-19T07:32:22.621Z,7.25
2024-01-19T07:33:31.664Z,6.78
2024-01-19T07:34:36.214Z,6.05
2024-01-19T07:35:39.894Z,5.50
2024-01-19T07:36:43.094Z,4.72
2024-01-19T07:37:45.076Z,6.05
2024-01-19T07:38:49.625Z,4.97
2024-01-19T07:39:51.606Z,6.00
2024-01-19T07:40:54.607Z,5.25
2024-01-19T07:41:57.045Z,6.03
2024-01-19T07:42:59.920Z,6.57
2024-01-19T07:44:01.789Z,4.85
2024-01-19T07:45:05.240Z,4.30
2024-01-19T07:46:07.397Z,8.10
2024-01-19T07:47:10.459Z,8.98
2024-01-19T07:48:12.807Z,6.72
2024-01-19T07:49:21.931Z,3.92
2024-01-19T07:50:24.131Z,7.57
2024-01-19T07:51:28.278Z,5.60
2024-01-19T07:52:30.152Z,5.85
2024-01-19T07:53:32.931Z,6.93
2024-01-19T07:54:37.328Z,9.27
2024-01-19T07:55:39.375Z,3.70
2024-01-19T07:56:42.341Z,5.68
2024-01-19T07:57:44.265Z,4.50
2024-01-19T07:58:46.167Z,7.28
2024-01-19T07:59:49.158Z,4.50
2024-01-19T08:00:51.220Z,5.35
2024-01-19T08:01:55.216Z,4.50
2024-01-19T08:02:57.301Z,7.53
2024-01-19T08:04:03.041Z,7.32
2024-01-19T08:05:06.271Z,5.80
2024-01-19T08:06:08.472Z,6.50
2024-01-19T08:07:11.362Z,4.82
2024-01-19T08:08:13.409Z,5.45
2024-01-19T08:09:16.486Z,5.88
2024-01-19T08:10:20.960Z,5.53
2024-01-19T08:11:24.407Z,8.77
2024-01-19T08:12:26.610Z,4.88
2024-01-19T08:13:29.584Z,7.75
2024-01-19T08:14:31.552Z,6.55
2024-01-19T08:15:35.988Z,4.35
2024-01-19T08:16:37.885Z,5.30
2024-01-19T08:17:41.419Z,5.43
2024-01-19T08:18:43.524Z,6.60
2024-01-19T08:19:46.909Z,3.83
2024-01-19T08:20:48.883Z,5.07
2024-01-19T08:21:51.757Z,5.78
2024-01-19T08:22:54.821Z,6.65
2024-01-19T08:23:58.572Z,4.60
2024-01-19T08:25:00.523Z,4.10
2024-01-19T08:26:08.162Z,3.83
2024-01-19T08:27:10.407Z,4.30
2024-01-19T08:28:13.279Z,6.68
2024-01-19T08:29:15.207Z,5.63
2024-01-19T08:30:20.001Z,6.32
2024-01-19T08:31:21.923Z,5.20
2024-01-19T08:32:25.214Z,7.32
2024-01-19T08:33:51.843Z,5.85
2024-01-19T08:34:54.928Z,6.75
2024-01-19T08:35:57.931Z,6.45
2024-01-19T08:37:00.866Z,6.10
2024-01-19T08:38:03.152Z,5.82
2024-01-19T08:39:06.092Z,7.53
2024-01-19T08:40:09.741Z,5.82
2024-01-19T08:41:15.447Z,5.97
2024-01-19T08:42:17.308Z,5.45
2024-01-19T08:43:20.198Z,6.22
2024-01-19T08:44:23.122Z,5.78
2024-01-19T08:45:29.865Z,4.80
2024-01-19T08:46:32.940Z,5.65
2024-01-19T08:47:37.027Z,6.05
2024-01-19T08:48:40.885Z,5.40
2024-01-19T08:49:44.097Z,8.05
2024-01-19T08:50:46.244Z,4.47
2024-01-19T08:51:51.045Z,6.10
2024-01-19T08:52:54.106Z,6.18
2024-01-19T08:53:57.019Z,5.68
2024-01-19T08:54:59.375Z,5.13
2024-01-19T08:56:02.232Z,4.82
2024-01-19T08:57:06.288Z,6.65
2024-01-19T08:58:09.334Z,6.18
2024-01-19T08:59:13.496Z,6.93
2024-01-19T09:00:16.964Z,4.95
2024-01-19T09:01:19.047Z,4.68
2024-01-19T09:02:23.052Z,6.05
2024-01-19T09:03:25.547Z,5.55
2024-01-19T09:04:29.365Z,5.60
2024-01-19T09:05:31.930Z,6.88
2024-01-19T09:06:34.452Z,6.97
2024-01-19T09:07:37.500Z,4.90
2024-01-19T09:08:41.302Z,5.68
2024-01-19T09:09:44.380Z,7.38
2024-01-19T09:10:46.359Z,4.60
2024-01-19T09:12:02.544Z,5.30
2024-01-19T09:13:06.350Z,4.65
2024-01-19T09:14:12.427Z,6.30
2024-01-19T09:15:17.346Z,6.88
2024-01-19T09:16:20.824Z,6.40
2024-01-19T09:17:22.940Z,5.53
2024-01-19T09:18:26.025Z,6.10
2024-01-19T09:19:31.075Z,5.45
2024-01-19T09:20:34.431Z,7.18
2024-01-19T09:21:36.593Z,5.05
2024-01-19T09:22:39.480Z,5.40
2024-01-19T09:23:41.392Z,6.53
2024-01-19T09:24:47.080Z,7.75
2024-01-19T09:25:49.270Z,7.70
2024-01-19T09:26:52.257Z,6.25
2024-01-19T09:27:54.908Z,8.65
2024-01-19T09:28:59.308Z,5.15
2024-01-19T09:30:01.402Z,6.30
2024-01-19T09:31:04.344Z,8.57
2024-01-19T09:32:06.869Z,6.45
2024-01-19T09:33:09.873Z,4.95
2024-01-19T09:34:12.182Z,9.82
2024-01-19T09:35:15.464Z,9.48
2024-01-19T09:36:18.020Z,4.32
2024-01-19T09:37:21.039Z,4.68
2024-01-19T09:38:22.954Z,6.78
2024-01-19T09:39:25.869Z,10.52
2024-01-19T09:40:27.925Z,6.97
2024-01-19T09:41:35.925Z,6.20
2024-01-19T09:42:40.946Z,6.43
2024-01-19T09:43:46.715Z,8.20
2024-01-19T09:44:59.655Z,4.78
2024-01-19T09:46:05.873Z,6.65
2024-01-19T09:47:18.543Z,6.93
2024-01-19T09:48:24.354Z,5.25
2024-01-19T09:49:40.524Z,4.90
2024-01-19T09:50:46.331Z,7.80
2024-01-19T09:51:57.811Z,5.00
2024-01-19T09:53:00.769Z,6.50
2024-01-19T09:54:10.137Z,6.60
2024-01-19T09:55:12.998Z,6.90
2024-01-19T09:56:16.280Z,7.82
2024-01-19T09:57:18.185Z,7.30
2024-01-19T09:58:22.914Z,6.80
2024-01-19T09:59:25.473Z,5.93
2024-01-19T10:00:29.822Z,7.63
2024-01-19T10:01:32.219Z,8.57
2024-01-19T10:02:34.967Z,5.45
2024-01-19T10:03:38.560Z,8.80
2024-01-19T10:04:40.829Z,8.65
2024-01-19T10:05:44.050Z,10.38
2024-01-19T10:06:47.424Z,7.07
2024-01-19T10:07:54.486Z,6.00
2024-01-19T10:08:59.578Z,9.02
2024-01-19T10:10:02.839Z,6.38
2024-01-19T10:11:07.195Z,8.52
2024-01-19T10:12:10.524Z,7.70
2024-01-19T10:13:13.930Z,8.70
2024-01-19T10:14:15.935Z,6.88
2024-01-19T10:15:19.596Z,7.97
2024-01-19T10:16:22.870Z,6.07
2024-01-19T10:17:26.628Z,9.20
2024-01-19T10:18:31.387Z,6.57
2024-01-19T10:19:37.962Z,7.30
2024-01-19T10:20:43.315Z,7.30
2024-01-19T10:21:46.443Z,8.43
2024-01-19T10:22:48.364Z,7.47
2024-01-19T10:23:51.332Z,7.93
2024-01-19T10:24:59.917Z,7.35
2024-01-19T10:26:15.738Z,8.80
2024-01-19T10:27:17.850Z,7.05
2024-01-19T10:28:31.659Z,6.10
2024-01-19T10:29:34.432Z,5.82
2024-01-19T10:30:37.301Z,8.30
2024-01-19T10:31:42.204Z,8.68
2024-01-19T10:32:47.010Z,7.63
2024-01-19T10:33:50.536Z,5.45
2024-01-19T10:35:05.154Z,8.45
2024-01-19T10:36:08.354Z,7.57
2024-01-19T10:37:10.249Z,9.25
2024-01-19T10:38:13.266Z,8.45
2024-01-19T10:39:17.405Z,9.82
2024-01-19T10:40:24.589Z,7.05
2024-01-19T10:41:27.173Z,7.07
2024-01-19T10:42:40.180Z,9.00
2024-01-19T10:43:43.121Z,8.82
2024-01-19T10:44:45.049Z,7.70
2024-01-19T10:45:48.026Z,8.20
2024-01-19T10:46:51.617Z,11.25
2024-01-19T10:47:57.154Z,7.18
2024-01-19T10:49:04.899Z,6.22
2024-01-19T10:50:09.835Z,8.50
2024-01-19T10:51:12.967Z,7.22
2024-01-19T10:52:16.279Z,10.40
2024-01-19T10:53:18.313Z,10.30
2024-01-19T10:54:26.729Z,9.00
2024-01-19T10:55:30.153Z,7.78
2024-01-19T10:56:32.388Z,8.35
2024-01-19T10:57:35.411Z,7.30
2024-01-19T10:58:37.352Z,8.00
2024-01-19T10:59:40.273Z,8.38
2024-01-19T11:00:42.839Z,8.43
2024-01-19T11:01:45.933Z,7.63
2024-01-19T11:02:51.223Z,8.90
2024-01-19T11:03:54.312Z,9.68
2024-01-19T11:04:56.336Z,7.82
2024-01-19T11:06:01.324Z,8.73
2024-01-19T11:07:04.840Z,9.43
2024-01-19T11:08:07.983Z,11.13
2024-01-19T11:09:09.953Z,14.13
2024-01-19T11:10:11.913Z,9.43
2024-01-19T11:11:15.662Z,7.22
2024-01-19T11:12:19.623Z,11.15
2024-01-19T11:13:23.705Z,10.05
2024-01-19T11:14:27.070Z,9.82
2024-01-19T11:15:36.352Z,11.82
2024-01-19T11:16:44.539Z,8.35
2024-01-19T11:17:51.146Z,7.65
2024-01-19T11:18:54.623Z,10.20
2024-01-19T11:19:57.923Z,8.57
2024-01-19T11:21:00.057Z,11.05
2024-01-19T11:22:03.573Z,9.98
2024-01-19T11:23:07.024Z,8.65
2024-01-19T11:24:11.334Z,10.32
2024-01-19T11:25:18.951Z,10.32
2024-01-19T11:26:27.797Z,10.30
2024-01-19T11:27:34.397Z,12.23
2024-01-19T11:28:47.436Z,10.93
2024-01-19T11:30:10.372Z,6.75
2024-01-19T11:31:17.110Z,10.18
2024-01-19T11:32:19.513Z,9.98
2024-01-19T11:33:24.170Z,10.43
2024-01-19T11:34:52.014Z,10.85
2024-01-19T11:35:55.390Z,10.93
2024-01-19T11:36:58.208Z,8.70
2024-01-19T11:38:01.238Z,9.18
2024-01-19T11:39:06.980Z,12.15
2024-01-19T11:40:09.222Z,10.23
2024-01-19T11:41:12.859Z,10.15
2024-01-19T11:42:45.934Z,9.75
2024-01-19T11:43:48.865Z,10.35
2024-01-19T11:44:50.952Z,8.63
2024-01-19T11:45:53.891Z,12.63
2024-01-19T11:46:56.764Z,10.10
2024-01-19T11:47:59.104Z,8.52
2024-01-19T11:49:03.456Z,9.63
2024-01-19T11:50:06.976Z,8.93
2024-01-19T11:51:10.452Z,11.95
2024-01-19T11:52:50.940Z,13.38
2024-01-19T11:53:58.350Z,9.35
2024-01-19T11:55:01.479Z,10.95
2024-01-19T11:56:22.938Z,10.88
2024-01-19T11:57:25.600Z,10.38
2024-01-19T11:58:32.173Z,10.15
2024-01-19T11:59:35.692Z,9.48
2024-01-19T12:00:37.802Z,9.00
2024-01-19T12:01:41.582Z,11.02
2024-01-19T12:02:45.302Z,11.65
2024-01-19T12:03:53.804Z,7.93
2024-01-19T12:04:59.286Z,9.15
2024-01-19T12:06:03.719Z,10.55
2024-01-19T12:07:08.118Z,10.68
2024-01-19T12:08:13.953Z,10.70
2024-01-19T12:09:18.053Z,10.38
2024-01-19T12:10:20.710Z,7.68
2024-01-19T12:11:23.351Z,11.25
2024-01-19T12:12:26.277Z,10.13
2024-01-19T12:13:28.231Z,12.80
2024-01-19T12:14:31.311Z,10.23
2024-01-19T12:15:33.311Z,9.43
2024-01-19T12:16:38.056Z,9.02
2024-01-19T12:17:41.873Z,10.23
2024-01-19T12:18:45.624Z,9.82
2024-01-19T12:19:47.670Z,10.57
2024-01-19T12:20:54.367Z,9.88
2024-01-19T12:21:58.978Z,11.75
2024-01-19T12:23:01.433Z,9.45
2024-01-19T12:24:04.378Z,7.63
2024-01-19T12:25:16.178Z,10.00
2024-01-19T12:26:21.753Z,9.85
2024-01-19T12:27:24.377Z,8.10
2024-01-19T12:28:28.045Z,10.02
2024-01-19T12:29:30.735Z,9.50
2024-01-19T12:30:34.663Z,9.25
2024-01-19T12:31:40.510Z,11.50
2024-01-19T12:32:44.693Z,15.73
2024-01-19T12:33:46.661Z,8.25
2024-01-19T12:34:59.670Z,11.13
2024-01-19T12:36:05.868Z,11.18
2024-01-19T12:37:08.866Z,11.55
2024-01-19T12:38:11.075Z,9.07
2024-01-19T12:39:15.370Z,11.18
2024-01-19T12:40:19.855Z,9.73
2024-01-19T12:41:22.789Z,11.35
2024-01-19T12:42:25.882Z,8.88
2024-01-19T12:43:32.569Z,8.20
2024-01-19T12:44:35.536Z,8.35
2024-01-19T12:45:37.570Z,7.68
2024-01-19T12:46:48.182Z,8.30
2024-01-19T12:47:51.185Z,6.38
2024-01-19T12:49:04.537Z,9.88
2024-01-19T12:50:11.121Z,9.57
2024-01-19T12:51:18.484Z,8.73
2024-01-19T12:52:20.532Z,7.80
2024-01-19T12:53:23.447Z,8.90
2024-01-19T12:54:25.345Z,11.60
2024-01-19T12:55:29.171Z,10.90
2024-01-19T12:56:33.339Z,8.98
2024-01-19T12:57:36.372Z,9.57
2024-01-19T12:58:38.257Z,8.00
2024-01-19T12:59:41.250Z,12.48
2024-01-19T13:00:43.321Z,11.35
2024-01-19T13:01:48.038Z,8.35
2024-01-19T13:02:54.499Z,10.73
2024-01-19T13:03:58.544Z,10.00
2024-01-19T13:05:00.709Z,11.15
2024-01-19T13:06:05.415Z,11.50
2024-01-19T13:07:11.847Z,8.55
2024-01-19T13:08:19.500Z,8.88
2024-01-19T13:09:23.350Z,9.57
2024-01-19T13:10:25.696Z,11.27
2024-01-19T13:11:28.687Z,9.98
2024-01-19T13:12:30.638Z,8.63
2024-01-19T13:13:32.635Z,7.32
2024-01-19T13:14:35.944Z,10.00
2024-01-19T13:15:38.064Z,10.57
2024-01-19T13:16:53.708Z,9.50
2024-01-19T13:18:06.849Z,9.63
2024-01-19T13:19:11.475Z,11.80
2024-01-19T13:20:24.614Z,9.50
2024-01-19T13:21:27.702Z,9.93
2024-01-19T13:22:31.660Z,10.02
2024-01-19T13:23:34.608Z,8.50
2024-01-19T13:24:37.166Z,7.93
2024-01-19T13:25:40.334Z,9.43
2024-01-19T13:26:42.377Z,12.32
2024-01-19T13:27:45.667Z,10.95
2024-01-19T13:28:48.515Z,9.63
2024-01-19T13:29:52.018Z,10.02
2024-01-19T13:30:54.075Z,11.63
2024-01-19T13:31:57.910Z,9.43
2024-01-19T13:33:02.185Z,7.57
2024-01-19T13:34:08.298Z,9.40
2024-01-19T13:35:11.884Z,7.93
2024-01-19T13:36:17.620Z,8.10
2024-01-19T13:37:19.612Z,10.18
2024-01-19T13:38:24.725Z,10.20
2024-01-19T13:39:27.891Z,10.98
2024-01-19T13:40:31.293Z,5.80
2024-01-19T13:41:33.228Z,8.00
2024-01-19T13:42:55.453Z,9.48
2024-01-19T13:44:00.714Z,10.35
2024-01-19T13:45:06.207Z,9.00
2024-01-19T13:46:08.262Z,11.68
2024-01-19T13:47:11.283Z,10.35
2024-01-19T13:48:13.292Z,8.68
2024-01-19T13:49:15.268Z,8.90
2024-01-19T13:50:18.411Z,10.23
2024-01-19T13:51:20.676Z,11.45
2024-01-19T13:52:23.693Z,8.27
2024-01-19T13:53:26.984Z,8.50
2024-01-19T13:54:29.879Z,9.13
2024-01-19T13:55:31.803Z,10.68
2024-01-19T13:56:34.751Z,7.72
2024-01-19T13:57:36.685Z,9.90
2024-01-19T13:58:39.754Z,7.40
2024-01-19T13:59:41.672Z,10.32
2024-01-19T14:00:44.610Z,9.40
2024-01-19T14:01:47.185Z,9.90
2024-01-19T14:02:50.248Z,9.52
2024-01-19T14:03:53.612Z,9.10
2024-01-19T14:04:58.355Z,10.23
2024-01-19T14:06:00.617Z,8.85